Time;durP1;ratioP1;P1;durP2;ratioP2;P2;SDS_P1;SDS_P2;PMS_P1;PMS_P2;Temp;Humidity;BMP_temperature;BMP_pressure;BME280_temperature;BME280_humidity;BME280_pressure;Samples;Min_cycle;Max_cycle;Signal;HPM_P1;HPM_P2
2022/06/19 00:01:26;;;;;;;3.42;1.98;;;;;;;21.76;42.31;99034.31;5095701;28;20887;-69
2022/06/19 00:03:54;;;;;;;5.55;2.17;;;;;;;21.76;42.30;99026.25;5094248;28;20403;-72
2022/06/19 00:06:20;;;;;;;4.90;2.00;;;;;;;21.74;42.39;99031.00;5095212;28;20064;-69
2022/06/19 00:08:48;;;;;;;2.60;1.83;;;;;;;21.74;42.37;99025.63;5095618;28;20035;-71
2022/06/19 00:11:16;;;;;;;3.65;1.88;;;;;;;21.74;42.52;99022.91;5095185;28;20498;-69
2022/06/19 00:13:42;;;;;;;2.67;1.80;;;;;;;21.72;42.40;99020.44;5086001;28;20434;-71
2022/06/19 00:16:08;;;;;;;5.22;1.92;;;;;;;21.72;42.44;99019.59;5074838;28;20143;-72
2022/06/19 00:18:34;;;;;;;3.47;2.15;;;;;;;21.71;42.60;99016.09;5074924;28;20535;-69
2022/06/19 00:21:00;;;;;;;2.20;1.50;;;;;;;21.71;42.45;99012.56;5075001;28;20123;-69
2022/06/19 00:23:26;;;;;;;3.95;1.70;;;;;;;21.70;42.48;99010.91;5075332;28;20035;-73
2022/06/19 00:25:51;;;;;;;2.83;1.92;;;;;;;21.71;42.47;99012.56;5075055;28;20086;-71
2022/06/19 00:28:17;;;;;;;3.80;1.60;;;;;;;21.70;42.36;99009.03;5074524;28;20511;-73
2022/06/19 00:30:42;;;;;;;2.80;1.70;;;;;;;;;;5074945;28;20040;-69
2022/06/19 00:33:07;;;;;;;2.92;1.98;;;;;;;21.68;42.45;98996.84;5074365;28;20028;-70
2022/06/19 00:35:33;;;;;;;2.50;2.00;;;;;;;21.68;42.55;99002.22;5075189;28;20120;-71
2022/06/19 00:37:58;;;;;;;3.95;1.52;;;;;;;;;;5075020;28;20043;-69
2022/06/19 00:40:26;;;;;;;4.68;1.88;;;;;;;21.69;42.27;98999.31;5074507;28;20480;-70
2022/06/19 00:42:52;;;;;;;1.85;1.40;;;;;;;21.67;42.46;99000.56;5074731;28;20059;-70
2022/06/19 00:45:42;;;;;;;3.08;2.00;;;;;;;21.67;42.43;99008.63;5074400;28;20055;-71
2022/06/19 00:48:15;;;;;;;2.73;1.90;;;;;;;21.66;42.52;98999.72;5074530;28;20123;-71
2022/06/19 00:50:43;;;;;;;4.68;2.03;;;;;;;21.68;42.51;99007.59;5074532;28;20259;-71
2022/06/19 00:53:11;;;;;;;3.38;1.52;;;;;;;;;;5091126;28;20123;-69
2022/06/19 00:55:41;;;;;;;5.90;2.10;;;;;;;21.67;42.32;99000.56;5094720;28;20114;-70
2022/06/19 00:58:25;;;;;;;2.53;1.57;;;;;;;21.65;42.53;98998.06;5094608;28;20043;-70
2022/06/19 01:00:57;;;;;;;2.53;1.58;;;;;;;21.64;42.33;98991.84;5094241;28;20345;-70
2022/06/19 01:03:33;;;;;;;5.05;1.73;;;;;;;21.64;42.34;98994.56;5094449;28;20395;-70
2022/06/19 01:06:00;;;;;;;4.45;2.05;;;;;;;21.66;42.41;98998.91;5094111;28;20038;-68
2022/06/19 01:08:26;;;;;;;3.53;1.80;;;;;;;21.66;42.41;98982.75;5094468;28;20032;-69
2022/06/19 01:10:53;;;;;;;3.38;2.08;;;;;;;21.66;42.41;98988.13;5094406;28;20047;-70
2022/06/19 01:13:23;;;;;;;2.40;1.52;;;;;;;21.65;42.31;98979.22;5093992;28;20036;-70
2022/06/19 01:15:50;;;;;;;5.38;1.92;;;;;;;21.64;42.31;98970.31;5093837;28;20042;-71
2022/06/19 01:18:16;;;;;;;2.03;1.52;;;;;;;21.65;42.23;98968.44;5093792;28;20039;-71
2022/06/19 01:20:43;;;;;;;2.72;1.75;;;;;;;21.64;42.16;98964.09;5093945;28;20380;-70
2022/06/19 01:23:17;;;;;;;1.92;1.40;;;;;;;21.63;42.30;98963.28;5094092;28;20036;-69
2022/06/19 01:25:43;;;;;;;2.25;1.73;;;;;;;21.61;42.28;98973.44;5094146;28;20436;-69
2022/06/19 01:31:00;;;;;;;3.83;1.45;;;;;;;21.62;42.26;98969.69;5094203;28;20042;-70
2022/06/19 01:33:47;;;;;;;2.47;1.85;;;;;;;21.64;42.24;98974.88;5094191;28;20040;-70
2022/06/19 01:36:14;;;;;;;3.05;1.50;;;;;;;21.64;42.21;98974.88;5093857;28;20115;-71
2022/06/19 01:38:43;;;;;;;4.13;1.70;;;;;;;21.64;42.22;98978.41;5093886;28;20032;-71
2022/06/19 01:41:15;;;;;;;2.35;1.55;;;;;;;21.65;42.11;98973.84;5093338;28;20604;-69
2022/06/19 01:43:41;;;;;;;2.33;1.35;;;;;;;21.64;42.17;98978.41;5093711;28;20035;-69
2022/06/19 01:46:07;;;;;;;2.15;1.67;;;;;;;21.66;42.02;98964.72;5093928;28;20040;-69
2022/06/19 01:48:33;;;;;;;6.30;1.60;;;;;;;21.66;42.10;98966.59;5093688;28;20055;-68
2022/06/19 01:51:02;;;;;;;2.15;1.30;;;;;;;21.67;42.14;98976.34;5093233;28;20040;-72
2022/06/19 01:53:45;;;;;;;2.67;1.52;;;;;;;21.68;41.95;98967.22;5093792;28;20032;-70
2022/06/19 01:56:12;;;;;;;3.05;1.65;;;;;;;21.66;41.82;98959.34;5093421;28;20028;-70
2022/06/19 01:58:43;;;;;;;2.53;1.25;;;;;;;;;;5093421;28;20137;-69
2022/06/19 02:01:10;;;;;;;1.95;1.23;;;;;;;21.67;41.96;98950.22;5093110;28;20028;-71
2022/06/19 02:03:44;;;;;;;1.90;1.50;;;;;;;21.70;42.00;98952.50;5093570;28;20036;-69
2022/06/19 02:06:13;;;;;;;3.30;1.73;;;;;;;21.71;41.93;98956.84;5074954;28;20059;-69
2022/06/19 02:08:40;;;;;;;2.17;1.50;;;;;;;21.71;41.93;98953.31;5093039;28;20119;-71
2022/06/19 02:11:06;;;;;;;3.05;1.02;;;;;;;21.73;41.80;98953.94;5093255;28;20024;-69
2022/06/19 02:13:34;;;;;;;1.95;1.25;;;;;;;21.74;41.71;98959.13;5092860;28;20036;-71
2022/06/19 02:16:04;;;;;;;2.13;1.30;;;;;;;21.75;41.71;98950.03;5093132;28;20452;-68
2022/06/19 02:18:34;;;;;;;4.13;1.73;;;;;;;21.76;41.65;98948.97;5093784;28;20047;-70
2022/06/19 02:21:00;;;;;;;3.53;1.38;;;;;;;21.76;41.67;98940.88;5093105;28;20102;-72
2022/06/19 02:23:31;;;;;;;1.70;1.10;;;;;;;21.75;41.72;98941.09;5092914;28;20526;-71
2022/06/19 02:25:57;;;;;;;2.78;1.10;;;;;;;21.75;41.80;98941.94;5092681;28;20036;-71
2022/06/19 02:28:23;;;;;;;2.47;1.40;;;;;;;21.76;41.80;98940.88;5092616;28;20430;-72
2022/06/19 02:30:48;;;;;;;3.80;1.85;;;;;;;21.76;41.79;98934.69;5093022;28;20043;-70
2022/06/19 02:33:18;;;;;;;5.03;1.30;;;;;;;21.78;41.81;98938.81;5092593;28;20052;-69
2022/06/19 02:35:44;;;;;;;2.13;1.50;;;;;;;21.77;41.62;98942.53;5092674;28;20035;-69
2022/06/19 02:38:17;;;;;;;4.05;1.33;;;;;;;21.79;41.68;98932.41;5092601;28;20518;-69
2022/06/19 02:40:58;;;;;;;2.90;1.42;;;;;;;21.80;41.86;98938.63;5092700;28;20487;-69
2022/06/19 02:43:26;;;;;;;2.47;1.13;;;;;;;21.79;41.93;98932.41;5092912;28;20144;-69
2022/06/19 02:45:52;;;;;;;1.83;1.30;;;;;;;21.79;41.78;98927.00;5092882;28;20060;-72
2022/06/19 02:48:24;;;;;;;3.03;1.13;;;;;;;21.82;41.54;98927.63;5092485;28;20454;-68
2022/06/19 02:50:51;;;;;;;1.40;1.00;;;;;;;21.84;41.54;98926.38;5092514;28;20089;-70
2022/06/19 02:53:18;;;;;;;2.97;1.25;;;;;;;21.84;41.47;98920.19;5074745;28;20028;-68
2022/06/19 02:55:44;;;;;;;2.63;1.17;;;;;;;21.89;41.39;98915.00;5092852;28;20441;-70
2022/06/19 02:58:10;;;;;;;1.70;0.98;;;;;;;21.90;41.44;98920.16;5092738;28;20042;-69
2022/06/19 03:00:36;;;;;;;2.33;1.30;;;;;;;21.94;41.17;98920.56;5092337;28;20035;-70
2022/06/19 03:03:27;;;;;;;2.20;1.30;;;;;;;21.98;41.25;98913.72;5092512;28;20112;-71
2022/06/19 03:05:53;;;;;;;3.50;2.03;;;;;;;22.01;41.45;98924.09;5074997;28;20496;-70
2022/06/19 03:08:18;;;;;;;4.22;1.42;;;;;;;22.06;41.38;98920.75;5092333;28;20032;-70
2022/06/19 03:10:44;;;;;;;2.30;1.40;;;;;;;22.09;41.28;98928.41;5092353;28;20040;-68
2022/06/19 03:13:10;;;;;;;2.40;2.00;;;;;;;22.12;41.25;98919.06;5087047;28;20040;-69
2022/06/19 03:15:36;;;;;;;2.20;1.80;;;;;;;22.14;41.25;98912.44;5072439;28;20040;-72
2022/06/19 03:18:02;;;;;;;3.05;1.77;;;;;;;22.17;41.25;98906.63;5071989;28;20032;-70
2022/06/19 03:20:28;;;;;;;2.75;2.33;;;;;;;22.19;41.18;98904.56;5072303;28;20097;-71
2022/06/19 03:22:54;;;;;;;4.30;2.25;;;;;;;22.21;41.27;98897.09;5071975;28;20082;-72
2022/06/19 03:25:20;;;;;;;4.40;2.63;;;;;;;22.23;41.06;98895.00;5072051;28;20037;-69
2022/06/19 03:27:46;;;;;;;2.55;1.52;;;;;;;22.25;41.22;98889.41;5071919;28;20059;-72
2022/06/19 03:30:13;;;;;;;3.17;1.58;;;;;;;22.28;41.17;98886.28;5071957;28;20415;-72
2022/06/19 03:32:38;;;;;;;3.72;1.90;;;;;;;22.29;41.16;98881.69;5071780;28;20032;-69
2022/06/19 03:35:04;;;;;;;5.35;2.05;;;;;;;22.30;41.07;98875.28;5071896;28;20040;-69
2022/06/19 03:37:30;;;;;;;3.03;1.80;;;;;;;22.31;41.11;98876.94;5072597;28;20036;-70
2022/06/19 03:39:55;;;;;;;2.30;1.60;;;;;;;22.31;41.21;98867.00;5075600;28;20472;-72
2022/06/19 03:42:21;;;;;;;1.92;1.40;;;;;;;22.33;41.25;98862.22;5091760;28;20467;-70
2022/06/19 03:44:46;;;;;;;4.43;1.77;;;;;;;22.36;41.12;98874.44;5095848;28;20028;-72
2022/06/19 03:47:20;;;;;;;2.25;1.48;;;;;;;22.35;40.98;98868.19;5095765;28;20118;-72
2022/06/19 03:49:46;;;;;;;4.07;1.50;;;;;;;22.37;41.14;98870.69;5095637;28;20115;-71
2022/06/19 03:52:11;;;;;;;2.17;1.40;;;;;;;22.41;40.84;98869.25;5095731;28;20123;-70
2022/06/19 03:54:37;;;;;;;7.00;1.92;;;;;;;22.41;41.04;98866.53;5095535;28;20514;-70
2022/06/19 03:57:03;;;;;;;4.88;1.40;;;;;;;22.43;40.90;98869.84;5095805;28;20036;-68
2022/06/19 03:59:28;;;;;;;6.10;1.70;;;;;;;22.43;41.02;98859.06;5095578;28;20399;-69
2022/06/19 04:01:54;;;;;;;5.45;1.67;;;;;;;22.43;41.00;98859.06;5095719;28;20040;-69
2022/06/19 04:04:19;;;;;;;1.95;1.20;;;;;;;22.44;41.05;98849.94;5095446;28;20032;-70
2022/06/19 04:06:45;;;;;;;4.20;1.40;;;;;;;22.45;40.93;98848.91;5095227;28;20028;-70
2022/06/19 04:09:15;;;;;;;2.45;1.48;;;;;;;22.46;41.02;98847.06;5095313;28;20031;-70
2022/06/19 04:11:41;;;;;;;4.00;1.50;;;;;;;22.45;41.06;98846.22;5095526;28;20028;-71
2022/06/19 04:14:08;;;;;;;3.25;1.40;;;;;;;22.46;41.04;98842.47;5095221;28;20070;-69
2022/06/19 04:16:34;;;;;;;3.03;1.33;;;;;;;22.46;41.09;98847.88;5095453;28;20028;-69
2022/06/19 04:19:03;;;;;;;3.53;1.33;;;;;;;22.48;41.01;98837.69;5095469;28;20028;-70
2022/06/19 04:21:30;;;;;;;5.18;1.50;;;;;;;22.50;40.96;98835.63;5095494;28;20123;-68
2022/06/19 04:23:58;;;;;;;2.45;1.30;;;;;;;22.52;41.06;98835.38;5095039;28;20027;-72
2022/06/19 04:26:27;;;;;;;2.30;1.55;;;;;;;22.55;40.93;98840.34;5095091;28;20027;-70
2022/06/19 04:28:53;;;;;;;3.03;1.45;;;;;;;22.54;41.05;98842.25;5095538;28;20390;-70
2022/06/19 04:31:19;;;;;;;2.67;1.40;;;;;;;22.55;41.05;98843.91;5094850;28;20028;-69
2022/06/19 04:33:44;;;;;;;1.58;1.02;;;;;;;22.58;41.05;98845.31;5095167;28;20039;-70
2022/06/19 04:36:14;;;;;;;2.78;1.40;;;;;;;22.60;41.11;98845.09;5095041;28;20085;-71
2022/06/19 04:38:42;;;;;;;3.45;1.20;;;;;;;22.60;41.10;98842.41;5094760;28;20506;-69
2022/06/19 04:41:16;;;;;;;1.73;1.02;;;;;;;22.60;41.01;98842.41;5094502;28;20028;-70
2022/06/19 04:43:42;;;;;;;4.13;1.73;;;;;;;22.61;41.16;98838.66;5094626;28;20028;-71
2022/06/19 04:46:08;;;;;;;2.92;1.48;;;;;;;22.60;41.03;98842.41;5094880;28;20044;-72
2022/06/19 04:48:35;;;;;;;1.67;1.20;;;;;;;22.62;41.19;98840.31;5094660;28;20085;-72
2022/06/19 04:51:00;;;;;;;4.63;1.33;;;;;;;22.61;41.04;98820.63;5094343;28;20028;-69
2022/06/19 04:53:27;;;;;;;2.00;1.27;;;;;;;22.63;41.22;98823.94;5094413;28;20149;-68
2022/06/19 04:55:52;;;;;;;2.28;1.13;;;;;;;22.65;41.24;98819.13;5094211;28;20123;-71
2022/06/19 04:58:22;;;;;;;3.78;1.50;;;;;;;22.67;41.03;98810.84;5094423;28;20123;-70
2022/06/19 05:00:48;;;;;;;3.33;1.50;;;;;;;22.75;41.08;98809.75;5094804;28;20032;-70
2022/06/19 05:03:14;;;;;;;2.05;1.40;;;;;;;22.85;41.01;98816.31;5094030;28;20024;-69
2022/06/19 05:05:39;;;;;;;2.40;1.67;;;;;;;23.07;40.71;98809.72;5094477;28;20031;-71
2022/06/19 05:08:05;;;;;;;2.03;1.10;;;;;;;23.21;40.27;98805.88;5094329;28;20386;-68
2022/06/19 05:10:30;;;;;;;3.17;1.20;;;;;;;23.51;40.18;98809.75;5094074;28;20036;-71
2022/06/19 05:12:56;;;;;;;2.47;1.23;;;;;;;23.56;39.62;98799.09;5093919;28;20165;-71
2022/06/19 05:15:22;;;;;;;3.90;1.15;;;;;;;23.68;39.85;98805.41;5094051;28;20491;-71
2022/06/19 05:17:47;;;;;;;10.82;1.73;;;;;;;23.72;39.61;98806.63;5093921;28;20502;-70
2022/06/19 05:20:13;;;;;;;2.45;1.30;;;;;;;23.70;39.46;98803.31;5094209;28;20040;-72
2022/06/19 05:22:38;;;;;;;1.70;1.20;;;;;;;23.65;39.88;98805.84;5093832;28;20506;-73
2022/06/19 05:25:08;;;;;;;5.20;2.47;;;;;;;23.66;40.00;98802.09;5094119;28;20035;-69
2022/06/19 05:27:38;;;;;;;4.93;4.40;;;;;;;23.77;39.40;98811.34;5093536;28;20062;-69
2022/06/19 05:30:06;;;;;;;44.83;38.80;;;;;;;23.77;39.82;98822.94;5093757;28;20039;-72
2022/06/19 05:32:32;;;;;;;122.45;109.72;;;;;;;23.75;39.64;98818.84;5093861;28;20055;-70
2022/06/19 05:34:57;;;;;;;173.18;155.23;;;;;;;23.73;40.01;98813.66;5093738;28;20032;-73
2022/06/19 05:37:25;;;;;;;190.05;166.80;;;;;;;23.69;39.88;98807.06;5093771;28;20035;-71
2022/06/19 05:39:51;;;;;;;189.25;161.07;;;;;;;23.69;40.18;98809.75;5093897;28;20475;-69
2022/06/19 05:42:16;;;;;;;202.60;165.70;;;;;;;23.66;40.17;98807.50;5093510;28;20043;-69
2022/06/19 05:44:42;;;;;;;208.65;155.30;;;;;;;23.67;40.29;98806.47;5093999;28;20032;-72
2022/06/19 05:47:08;;;;;;;175.25;130.75;;;;;;;23.67;40.21;98801.06;5093909;28;20035;-71
2022/06/19 05:49:34;;;;;;;193.57;132.60;;;;;;;23.67;40.42;98803.75;5093666;28;20052;-70
2022/06/19 05:52:01;;;;;;;174.93;118.93;;;;;;;23.71;40.50;98802.25;5093414;28;20067;-70
2022/06/19 05:54:28;;;;;;;148.55;96.95;;;;;;;23.84;40.27;98797.75;5093424;28;20119;-70
2022/06/19 05:56:53;;;;;;;137.95;92.95;;;;;;;23.89;40.37;98800.63;5093175;28;20034;-69
2022/06/19 05:59:19;;;;;;;129.80;90.40;;;;;;;23.94;40.43;98792.63;5093566;28;20039;-71
2022/06/19 06:01:45;;;;;;;120.53;80.30;;;;;;;24.04;40.31;98782.13;5092651;28;20079;-68
2022/06/19 06:04:10;;;;;;;106.20;74.35;;;;;;;24.11;39.89;98779.38;5093273;28;20028;-71
2022/06/19 06:06:36;;;;;;;99.20;71.22;;;;;;;24.17;39.77;98785.75;5093286;28;20554;-71
2022/06/19 06:09:01;;;;;;;79.75;59.42;;;;;;;24.22;39.74;98784.00;5093365;28;20028;-70
2022/06/19 06:11:27;;;;;;;85.90;56.42;;;;;;;24.26;39.97;98778.13;5092959;28;20479;-71
2022/06/19 06:13:52;;;;;;;62.88;44.00;;;;;;;24.28;39.56;98787.66;5081929;28;20093;-71
2022/06/19 06:16:20;;;;;;;62.58;43.40;;;;;;;24.28;39.81;98778.72;5073005;28;20036;-70
2022/06/19 06:18:46;;;;;;;38.97;29.67;;;;;;;24.29;39.88;98785.75;5073068;28;20032;-70
2022/06/19 06:21:15;;;;;;;29.77;18.90;;;;;;;24.28;40.08;98779.56;5072576;28;20403;-70
2022/06/19 06:23:41;;;;;;;28.38;19.10;;;;;;;24.29;40.17;98778.50;5072848;28;20158;-72
2022/06/19 06:26:10;;;;;;;35.53;25.48;;;;;;;24.28;39.85;98774.16;5072457;28;20047;-72
2022/06/19 06:28:38;;;;;;;21.05;16.58;;;;;;;24.26;40.14;98768.13;5072438;28;20460;-69
2022/06/19 06:31:03;;;;;;;28.05;19.13;;;;;;;24.25;39.86;98765.69;5073262;28;20032;-72
2022/06/19 06:33:29;;;;;;;19.33;13.48;;;;;;;24.21;40.17;98752.63;5072800;28;20082;-72
2022/06/19 06:35:55;;;;;;;19.55;13.60;;;;;;;24.20;40.23;98752.81;5073031;28;20043;-71
2022/06/19 06:38:22;;;;;;;12.35;7.10;;;;;;;24.17;40.32;98750.59;5072623;28;20071;-69
2022/06/19 06:40:48;;;;;;;12.20;8.18;;;;;;;24.14;40.46;98756.47;5072827;28;20045;-70
2022/06/19 06:43:14;;;;;;;12.45;8.77;;;;;;;24.12;40.10;98745.88;5092855;28;20032;-69
2022/06/19 06:45:40;;;;;;;9.75;7.13;;;;;;;24.08;40.64;98747.41;5092643;28;20487;-70
2022/06/19 06:48:05;;;;;;;7.88;6.13;;;;;;;24.06;40.62;98738.69;5092477;28;20077;-70
2022/06/19 06:50:31;;;;;;;10.60;6.65;;;;;;;24.03;40.51;98750.78;5092620;28;20032;-69
2022/06/19 06:52:57;;;;;;;10.75;6.10;;;;;;;24.02;40.65;98751.84;5092158;28;20089;-71
2022/06/19 06:55:22;;;;;;;8.10;4.78;;;;;;;23.98;40.78;98739.00;5092812;28;20035;-69
2022/06/19 06:57:48;;;;;;;8.60;4.13;;;;;;;23.94;40.85;98749.41;5092945;28;20115;-68
2022/06/19 07:00:22;;;;;;;6.50;4.05;;;;;;;23.91;41.08;98750.69;5092429;28;20032;-69
2022/06/19 07:02:48;;;;;;;6.10;4.07;;;;;;;23.91;41.01;98744.44;5092477;28;20093;-71
2022/06/19 07:05:14;;;;;;;5.47;3.72;;;;;;;23.90;40.70;98740.09;5092507;28;20028;-71
2022/06/19 07:07:39;;;;;;;5.18;3.22;;;;;;;23.90;40.82;98726.59;5092395;28;20048;-70
2022/06/19 07:10:05;;;;;;;6.40;3.35;;;;;;;23.89;41.04;98724.97;5092586;28;20058;-71
2022/06/19 07:12:31;;;;;;;6.20;2.13;;;;;;;23.82;41.45;98716.13;5093580;28;20059;-70
2022/06/19 07:14:57;;;;;;;4.55;2.92;;;;;;;23.84;41.36;98720.22;5096046;28;20507;-72
2022/06/19 07:17:23;;;;;;;6.85;2.45;;;;;;;23.85;41.54;98711.06;5096145;28;20046;-73
2022/06/19 07:19:49;;;;;;;5.05;2.17;;;;;;;23.86;41.46;98711.91;5096211;28;20039;-69
2022/06/19 07:22:17;;;;;;;3.65;2.10;;;;;;;23.88;41.59;98710.63;5096096;28;20043;-70
2022/06/19 07:24:43;;;;;;;7.32;2.40;;;;;;;23.93;41.22;98710.78;5096239;28;20483;-71
2022/06/19 07:27:10;;;;;;;5.88;2.88;;;;;;;23.96;41.10;98712.22;5095791;28;20056;-70
2022/06/19 07:29:41;;;;;;;6.00;2.75;;;;;;;23.97;40.86;98715.75;5095991;28;20162;-71
2022/06/19 07:32:07;;;;;;;4.35;2.58;;;;;;;23.96;41.21;98714.91;5096110;28;20035;-70
2022/06/19 07:34:32;;;;;;;2.65;1.70;;;;;;;23.95;41.31;98707.81;5096226;28;20036;-70
2022/06/19 07:36:58;;;;;;;4.22;1.98;;;;;;;23.91;41.85;98702.06;5096239;28;20055;-71
2022/06/19 07:39:23;;;;;;;4.90;1.38;;;;;;;23.88;42.15;98690.91;5095882;28;20035;-70
2022/06/19 07:41:48;;;;;;;5.78;1.52;;;;;;;23.86;42.19;98698.41;5095934;28;20032;-69
2022/06/19 07:44:14;;;;;;;8.45;1.85;;;;;;;23.86;42.42;98696.50;5096208;28;20028;-68
2022/06/19 07:50:09;;;;;;;2.90;1.70;;;;;;;23.86;42.25;98698.41;5095785;28;20060;-70
2022/06/19 07:52:09;;;;;;;2.90;1.80;;;;;;;23.82;42.45;98694.50;5095961;28;20088;-71
2022/06/19 07:54:35;;;;;;;2.75;1.58;;;;;;;23.82;42.40;98694.50;5095846;28;20036;-69
2022/06/19 07:57:00;;;;;;;6.35;1.77;;;;;;;23.82;42.70;98692.66;5095802;28;20483;-71
2022/06/19 07:59:26;;;;;;;3.65;2.05;;;;;;;23.84;42.88;98687.00;5096113;28;20394;-68
2022/06/19 08:01:51;;;;;;;6.45;1.77;;;;;;;23.88;42.41;98688.19;5095684;28;20172;-70
2022/06/19 08:04:17;;;;;;;5.70;1.38;;;;;;;23.89;42.63;98684.44;5095575;28;20379;-68
2022/06/19 08:06:42;;;;;;;3.15;1.70;;;;;;;23.92;41.75;98692.06;5095625;28;20028;-69
2022/06/19 08:09:07;;;;;;;3.65;2.05;;;;;;;23.93;41.98;98697.25;5095708;28;20047;-69
2022/06/19 08:11:34;;;;;;;3.88;1.55;;;;;;;23.94;41.47;98681.88;5095304;28;20046;-69
2022/06/19 08:13:59;;;;;;;8.27;2.10;;;;;;;23.97;41.80;98677.94;5095006;28;20510;-68
2022/06/19 08:16:25;;;;;;;3.70;1.30;;;;;;;23.98;41.78;98684.94;5095309;28;20024;-70
2022/06/19 08:18:50;;;;;;;4.28;1.92;;;;;;;23.98;41.60;98676.84;5095486;28;20038;-71
2022/06/19 08:21:15;;;;;;;2.70;1.55;;;;;;;23.99;41.24;98676.63;5095297;28;20128;-70
2022/06/19 08:23:41;;;;;;;2.78;1.48;;;;;;;24.00;41.25;98666.63;5094623;28;20036;-70
2022/06/19 08:26:06;;;;;;;4.45;1.95;;;;;;;23.99;41.37;98657.72;5095296;28;20036;-70
2022/06/19 08:30:57;;;;;;;5.78;1.60;;;;;;;23.99;41.38;98636.09;5095866;28;20032;-69
2022/06/19 08:33:23;;;;;;;4.30;2.00;;;;;;;23.99;41.11;98654.19;5095064;28;20067;-72
2022/06/19 08:35:53;;;;;;;8.13;1.90;;;;;;;23.99;41.17;98636.09;5095020;28;20569;-70
2022/06/19 08:38:23;;;;;;;10.30;2.03;;;;;;;23.99;40.99;98635.25;5094908;28;20036;-70
2022/06/19 08:40:48;;;;;;;2.83;1.38;;;;;;;23.99;41.05;98632.56;5095042;28;20475;-72
2022/06/19 08:43:41;;;;;;;11.35;1.63;;;;;;;24.00;41.15;98623.41;5094642;28;20081;-68
2022/06/19 08:46:22;;;;;;;2.28;1.38;;;;;;;23.97;41.07;98624.69;5095271;28;20024;-71
2022/06/19 08:48:56;;;;;;;5.25;1.15;;;;;;;23.98;41.18;98631.75;5094594;28;20078;-69
2022/06/19 08:51:37;;;;;;;4.22;1.50;;;;;;;23.98;41.24;98612.84;5094792;28;20106;-69
2022/06/19 08:54:25;;;;;;;;;;;;;;;23.89;41.19;98617.72;5074634;28;20036;-72
2022/06/19 08:57:03;;;;;;;2.80;1.20;;;;;;;23.91;41.31;98601.28;5027521;28;19912;-69
2022/06/19 08:59:52;;;;;;;2.63;1.45;;;;;;;23.93;41.37;98608.09;5074192;28;20115;-70
2022/06/19 09:02:49;;;;;;;5.20;1.45;;;;;;;23.95;41.21;98609.75;5077110;28;20024;-69
2022/06/19 09:05:45;;;;;;;3.67;1.30;;;;;;;23.97;40.86;98616.59;5076727;28;20524;-70
2022/06/19 09:08:43;;;;;;;2.80;1.30;;;;;;;23.98;41.40;98599.34;5094100;28;20035;-70
2022/06/19 09:11:33;;;;;;;6.20;1.42;;;;;;;24.01;41.15;98585.38;5094378;28;20032;-72
2022/06/19 09:14:09;;;;;;;3.60;1.30;;;;;;;24.02;40.97;98595.13;5082653;28;20108;-70
2022/06/19 09:16:49;;;;;;;8.10;1.45;;;;;;;24.02;41.28;98584.31;5073798;28;20032;-69
2022/06/19 09:19:26;;;;;;;2.78;1.33;;;;;;;24.03;41.13;98585.97;5073699;28;20501;-71
2022/06/19 09:22:17;;;;;;;5.57;1.48;;;;;;;24.04;41.26;98582.19;5073687;28;20035;-69
2022/06/19 09:25:20;;;;;;;1.60;1.08;;;;;;;24.04;41.28;98578.66;5074031;28;20035;-71
2022/06/19 09:27:55;;;;;;;2.53;1.35;;;;;;;24.04;41.38;98565.97;5073124;28;20048;-71
2022/06/19 09:30:35;;;;;;;4.03;1.58;;;;;;;24.07;41.42;98573.63;5073854;28;20056;-68
2022/06/19 09:33:14;;;;;;;4.07;1.30;;;;;;;24.05;41.38;98572.22;5073143;28;20037;-69
2022/06/19 09:35:54;;;;;;;4.68;1.45;;;;;;;24.06;41.49;98561.16;5073672;28;20107;-71
2022/06/19 09:38:42;;;;;;;2.63;1.47;;;;;;;24.07;41.19;98560.09;5073582;28;20039;-71
2022/06/19 09:41:15;;;;;;;3.40;2.03;;;;;;;24.07;41.46;98543.88;5075961;28;20040;-69
2022/06/19 09:43:52;;;;;;;2.83;1.50;;;;;;;24.11;40.72;98535.31;5093835;28;20112;-70
2022/06/19 09:46:42;;;;;;;4.57;1.50;;;;;;;24.12;40.84;98532.38;5093609;28;20452;-70
2022/06/19 09:49:19;;;;;;;2.23;1.73;;;;;;;24.13;40.97;98534.03;5092893;28;20142;-68
2022/06/19 09:52:01;;;;;;;1.92;1.40;;;;;;;24.15;40.77;98528.41;5093308;28;20115;-71
2022/06/19 09:54:34;;;;;;;2.17;1.33;;;;;;;24.15;40.89;98512.19;5093475;28;20176;-70
2022/06/19 09:57:11;;;;;;;3.35;1.45;;;;;;;24.17;40.82;98507.38;5093492;28;20394;-68
2022/06/19 09:59:46;;;;;;;3.38;1.27;;;;;;;24.18;40.97;98501.72;5093526;28;20047;-68
2022/06/19 10:02:21;;;;;;;3.53;1.30;;;;;;;24.19;40.96;98495.25;5093433;28;20375;-69
2022/06/19 10:05:02;;;;;;;3.63;1.45;;;;;;;24.18;40.74;98498.22;5093510;28;20027;-69
2022/06/19 10:07:38;;;;;;;2.53;1.48;;;;;;;24.20;40.58;98488.78;5093233;28;20358;-68
2022/06/19 10:10:17;;;;;;;3.05;1.33;;;;;;;24.20;40.96;98483.41;5093353;28;20637;-70
2022/06/19 10:12:47;;;;;;;3.08;1.23;;;;;;;24.20;40.45;98477.97;5092761;28;20487;-71
2022/06/19 10:15:17;;;;;;;1.95;1.30;;;;;;;24.21;40.78;98468.81;5092863;28;20043;-71
2022/06/19 10:17:48;;;;;;;2.15;1.40;;;;;;;24.21;40.46;98470.69;5093039;28;20024;-72
2022/06/19 10:20:17;;;;;;;3.70;1.42;;;;;;;24.23;40.74;98465.88;5092813;28;20093;-73
2022/06/19 10:22:42;;;;;;;4.28;1.55;;;;;;;24.24;40.47;98462.09;5092773;28;20542;-71
2022/06/19 10:25:10;;;;;;;2.03;1.30;;;;;;;24.25;40.60;98452.94;5093125;28;20058;-69
2022/06/19 10:27:46;;;;;;;2.50;1.48;;;;;;;24.26;40.48;98441.06;5093335;28;20428;-72
2022/06/19 10:30:24;;;;;;;4.30;2.28;;;;;;;24.28;40.57;98451.63;5090951;28;20056;-72
2022/06/19 10:33:11;;;;;;;3.22;1.55;;;;;;;24.28;40.65;98440.81;5092770;28;20062;-71
2022/06/19 10:35:44;;;;;;;3.33;1.50;;;;;;;24.27;40.83;98442.72;5093020;28;20078;-71
2022/06/19 10:38:12;;;;;;;5.03;1.80;;;;;;;24.28;40.41;98417.34;5092600;28;20498;-71
2022/06/19 10:40:53;;;;;;;2.80;1.60;;;;;;;24.30;40.59;98411.69;5092457;28;20513;-71
2022/06/19 10:43:22;;;;;;;4.22;1.40;;;;;;;24.30;40.70;98404.41;5092917;28;20368;-72
2022/06/19 10:45:52;;;;;;;4.05;1.50;;;;;;;24.30;40.75;98403.56;5092837;28;20032;-71
2022/06/19 10:48:17;;;;;;;2.80;1.60;;;;;;;24.29;40.60;98389.25;5092361;28;20036;-70
2022/06/19 10:51:04;;;;;;;3.05;1.55;;;;;;;24.32;40.50;98388.78;5092846;28;20036;-69
2022/06/19 10:53:48;;;;;;;7.47;1.60;;;;;;;24.32;40.74;98385.25;5092342;28;20038;-72
2022/06/19 10:56:31;;;;;;;2.58;1.50;;;;;;;24.32;40.71;98398.75;5092458;28;20040;-69
2022/06/19 10:58:59;;;;;;;5.68;1.98;;;;;;;24.30;40.71;98398.16;5092713;28;20376;-73
2022/06/19 11:04:20;;;;;;;4.47;1.70;;;;;;;24.32;40.61;98393.34;5092991;28;20031;-68
2022/06/19 11:07:01;;;;;;;3.95;1.48;;;;;;;24.35;40.48;98396.38;5092164;28;20502;-68
2022/06/19 11:09:31;;;;;;;2.90;1.67;;;;;;;24.33;40.64;98395.84;5092230;28;20028;-70
2022/06/19 11:12:05;;;;;;;6.50;2.25;;;;;;;24.32;40.53;98393.34;5092426;28;20039;-68
2022/06/19 11:14:49;;;;;;;2.25;1.42;;;;;;;24.30;40.77;98387.34;5092199;28;20037;-70
2022/06/19 11:17:29;;;;;;;10.07;2.33;;;;;;;24.29;41.18;98404.63;5092247;28;20056;-72
2022/06/19 11:19:55;;;;;;;5.07;2.00;;;;;;;24.27;41.25;98412.16;5092188;28;20047;-68
2022/06/19 11:22:35;;;;;;;3.97;1.65;;;;;;;24.28;41.08;98421.91;5092140;28;20023;-72
2022/06/19 11:25:20;;;;;;;6.28;1.88;;;;;;;24.25;40.98;98420.50;5092858;28;20054;-69
2022/06/19 11:27:55;;;;;;;5.32;1.92;;;;;;;24.25;41.11;98408.91;5092274;28;20028;-71
2022/06/19 11:30:42;;;;;;;4.97;1.35;;;;;;;24.23;41.26;98401.84;5092044;28;20055;-71
2022/06/19 11:33:17;;;;;;;2.38;1.50;;;;;;;24.21;40.82;98400.41;5092280;28;20089;-71
2022/06/19 11:35:45;;;;;;;4.32;1.60;;;;;;;24.22;40.93;98424.53;5092440;28;20043;-69
2022/06/19 11:38:12;;;;;;;2.33;1.55;;;;;;;24.22;41.07;98423.69;5092125;28;20407;-72
2022/06/19 11:40:42;;;;;;;2.30;1.70;;;;;;;24.22;41.19;98419.13;5092377;28;20040;-71
2022/06/19 11:43:26;;;;;;;4.28;1.50;;;;;;;24.23;41.10;98417.22;5092064;28;20031;-69
2022/06/19 11:46:16;;;;;;;8.05;1.92;;;;;;;24.25;41.29;98420.50;5092846;28;20043;-70
2022/06/19 11:48:42;;;;;;;3.50;1.50;;;;;;;24.26;41.25;98427.56;5080368;28;20039;-72
2022/06/19 11:51:21;;;;;;;5.03;1.83;;;;;;;24.27;41.24;98407.59;5092269;28;20289;-70
2022/06/19 11:53:53;;;;;;;2.90;1.77;;;;;;;24.27;41.43;98413.00;5072048;28;20391;-70
2022/06/19 11:56:32;;;;;;;4.28;1.85;;;;;;;24.29;41.36;98418.16;5071946;28;20044;-71
2022/06/19 11:59:01;;;;;;;7.55;1.63;;;;;;;24.30;40.98;98414.38;5072087;28;20032;-71